Time;durP1;ratioP1;P1;durP2;ratioP2;P2;SDS_P1;SDS_P2;PMS_P1;PMS_P2;Temp;Humidity;BMP_temperature;BMP_pressure;BME280_temperature;BME280_humidity;BME280_pressure;Samples;Min_cycle;Max_cycle;Signal;HPM_P1;HPM_P2
2023/05/08 00:01:07;;;;;;;12.23;7.15;;;;;;;12.54;100.00;97568.22;5094921;28;20140;-79
2023/05/08 00:03:33;;;;;;;11.82;6.70;;;;;;;12.51;100.00;97553.19;5112464;28;20051;-79
2023/05/08 00:05:59;;;;;;;22.38;7.97;;;;;;;12.46;100.00;97545.44;5113731;28;20035;-79
2023/05/08 00:08:24;;;;;;;13.35;7.95;;;;;;;12.55;100.00;97559.22;5112336;28;20478;-79
2023/05/08 00:10:50;;;;;;;12.13;7.68;;;;;;;12.39;100.00;97548.69;5111764;28;20030;-79
2023/05/08 00:13:15;;;;;;;11.35;7.55;;;;;;;12.33;100.00;97555.34;5112140;28;20029;-79
2023/05/08 00:15:41;;;;;;;15.15;8.32;;;;;;;12.39;100.00;97557.59;5094939;28;20398;-78
2023/05/08 00:18:07;;;;;;;14.32;8.40;;;;;;;12.34;100.00;97546.31;5112136;28;20019;-79
2023/05/08 00:20:33;;;;;;;16.40;8.20;;;;;;;12.29;100.00;97553.81;5094990;28;20030;-79
2023/05/08 00:22:58;;;;;;;13.98;7.90;;;;;;;12.32;100.00;97558.97;5094681;28;20034;-79
2023/05/08 00:25:24;;;;;;;17.35;8.43;;;;;;;12.21;100.00;97556.16;5111566;28;20024;-79
2023/05/08 00:27:50;;;;;;;17.80;8.45;;;;;;;12.31;100.00;97569.78;5094170;28;20016;-79
2023/05/08 00:30:16;;;;;;;14.73;7.55;;;;;;;12.25;100.00;97563.03;5094234;28;20048;-79
2023/05/08 00:32:41;;;;;;;14.77;8.48;;;;;;;12.26;100.00;97574.63;5111378;28;20081;-79
2023/05/08 00:35:07;;;;;;;15.23;7.90;;;;;;;12.19;100.00;97568.81;5089696;28;20032;-79
2023/05/08 00:37:33;;;;;;;18.48;8.15;;;;;;;12.17;100.00;97565.38;5094105;28;20434;-78
2023/05/08 00:39:58;;;;;;;23.27;8.23;;;;;;;12.16;100.00;97571.69;5094433;28;20505;-79
2023/05/08 00:42:24;;;;;;;16.52;7.80;;;;;;;12.13;100.00;97573.72;5111372;28;20490;-78
2023/05/08 00:44:49;;;;;;;12.68;7.50;;;;;;;12.12;100.00;97574.72;5112438;28;20406;-78
2023/05/08 00:47:15;;;;;;;13.73;7.80;;;;;;;12.15;100.00;97578.03;5111586;28;20072;-79
2023/05/08 00:49:41;;;;;;;15.35;8.23;;;;;;;12.23;100.00;97591.78;5094814;28;20027;-79
2023/05/08 00:52:07;;;;;;;17.35;9.02;;;;;;;12.16;100.00;97589.59;5111308;28;20053;-78
2023/05/08 00:54:35;;;;;;;13.43;8.02;;;;;;;12.07;100.00;97591.09;5094266;28;20039;-78
2023/05/08 00:57:01;;;;;;;13.77;8.23;;;;;;;12.12;100.00;97597.00;5094108;28;20084;-78
2023/05/08 00:59:27;;;;;;;23.80;8.50;;;;;;;12.11;100.00;97594.44;5093906;28;20035;-78
2023/05/08 01:01:52;;;;;;;14.02;8.38;;;;;;;12.10;100.00;97601.63;5093925;28;20104;-79
2023/05/08 01:04:20;;;;;;;13.98;7.97;;;;;;;12.04;100.00;97602.03;5094036;28;20020;-78
2023/05/08 01:06:46;;;;;;;11.57;7.03;;;;;;;11.98;100.00;97581.00;5093625;28;20115;-79
2023/05/08 01:09:11;;;;;;;14.63;7.35;;;;;;;11.92;100.00;97584.94;5093706;28;20140;-80
2023/05/08 01:12:14;;;;;;;14.80;6.80;;;;;;;11.98;100.00;97594.41;5111135;28;20031;-78
2023/05/08 01:14:40;;;;;;;;;;;;;;;11.98;100.00;97593.53;5112907;28;20035;-78
2023/05/08 01:17:26;;;;;;;14.45;7.13;;;;;;;11.89;100.00;97600.38;5111354;28;19994;-78
2023/05/08 01:20:20;;;;;;;11.77;6.90;;;;;;;11.86;100.00;97595.22;5108892;28;20505;-79
2023/05/08 01:22:54;;;;;;;11.70;7.05;;;;;;;11.81;100.00;97594.66;5107448;28;20054;-79
2023/05/08 01:25:23;;;;;;;14.88;7.85;;;;;;;11.79;100.00;97592.06;5113342;28;20027;-79
2023/05/08 01:27:57;;;;;;;12.45;7.18;;;;;;;11.82;100.00;97597.22;5112591;28;20094;-78
2023/05/08 01:30:25;;;;;;;11.95;7.32;;;;;;;11.89;100.00;97598.56;5109666;28;20052;-79
2023/05/08 01:33:02;;;;;;;15.32;7.32;;;;;;;11.86;100.00;97593.41;5113603;28;20034;-78
2023/05/08 01:35:48;;;;;;;12.20;7.68;;;;;;;11.73;100.00;97591.63;5095508;28;20471;-78
2023/05/08 01:38:32;;;;;;;13.50;7.80;;;;;;;11.70;100.00;97581.97;5094541;28;20413;-78
2023/05/08 01:41:07;;;;;;;15.25;7.78;;;;;;;11.67;100.00;97591.97;5108026;28;20099;-79
2023/05/08 01:43:56;;;;;;;17.85;8.55;;;;;;;11.64;100.00;97594.88;5111007;28;20032;-79
2023/05/08 01:46:26;;;;;;;15.30;7.82;;;;;;;11.57;100.00;97590.84;5094395;28;20027;-79
2023/05/08 01:49:10;;;;;;;16.08;8.15;;;;;;;11.60;100.00;97604.06;5116204;28;20103;-79
2023/05/08 01:51:48;;;;;;;18.80;8.65;;;;;;;11.56;100.00;97598.06;5097339;28;20076;-78
2023/05/08 01:54:23;;;;;;;14.32;8.25;;;;;;;11.44;100.00;97597.00;5114741;28;20032;-79
2023/05/08 01:56:52;;;;;;;17.10;8.32;;;;;;;11.43;100.00;97598.00;5115129;28;20030;-78
2023/05/08 01:59:20;;;;;;;13.55;8.35;;;;;;;11.43;100.00;97607.84;5115667;28;20505;-78
2023/05/08 02:01:47;;;;;;;12.00;7.85;;;;;;;11.40;100.00;97611.59;5098920;28;20034;-79
2023/05/08 02:04:14;;;;;;;17.80;8.55;;;;;;;11.38;100.00;97612.66;5115888;28;20448;-78
2023/05/08 02:06:40;;;;;;;17.65;8.80;;;;;;;11.35;100.00;97596.78;5100082;28;20034;-79
2023/05/08 02:09:07;;;;;;;15.60;9.02;;;;;;;11.32;100.00;97603.16;5117026;28;20110;-79
2023/05/08 02:11:34;;;;;;;17.60;8.48;;;;;;;11.39;100.00;97603.63;5116078;28;20072;-79
2023/05/08 02:14:01;;;;;;;14.93;8.45;;;;;;;11.34;100.00;97605.75;5099640;28;20031;-79
2023/05/08 02:16:27;;;;;;;15.10;9.00;;;;;;;11.38;100.00;97612.66;5101918;28;20035;-79
2023/05/08 02:18:54;;;;;;;14.38;8.27;;;;;;;11.25;100.00;97599.19;5100471;28;20096;-79
2023/05/08 02:21:21;;;;;;;16.55;9.02;;;;;;;11.29;100.00;97608.72;5117822;28;20035;-79
2023/05/08 02:23:47;;;;;;;17.25;8.75;;;;;;;11.31;100.00;97605.94;5101127;28;20065;-79
2023/05/08 02:26:14;;;;;;;20.10;9.35;;;;;;;11.34;100.00;97617.34;5119049;28;20053;-79
2023/05/08 02:28:40;;;;;;;14.32;8.98;;;;;;;11.35;100.00;97624.38;5103269;28;20023;-79
2023/05/08 02:31:08;;;;;;;15.32;8.77;;;;;;;11.25;100.00;97628.63;5104589;28;20112;-79
2023/05/08 02:33:33;;;;;;;18.67;9.85;;;;;;;11.27;100.00;97625.84;5103070;28;20031;-79
2023/05/08 02:36:00;;;;;;;23.90;9.75;;;;;;;11.26;100.00;97626.78;5116124;28;20023;-79
2023/05/08 02:38:26;;;;;;;24.60;10.48;;;;;;;11.23;100.00;97627.84;5097628;28;20103;-79
2023/05/08 02:40:56;;;;;;;24.35;9.52;;;;;;;11.20;100.00;97616.47;5097102;28;20476;-79
2023/05/08 02:43:22;;;;;;;21.02;9.73;;;;;;;11.12;100.00;97619.66;5114413;28;20031;-79
2023/05/08 02:46:06;;;;;;;22.30;10.13;;;;;;;11.09;100.00;97622.50;5097060;28;20035;-79
2023/05/08 02:48:32;;;;;;;20.58;9.73;;;;;;;11.17;100.00;97636.25;5115902;28;20107;-78
2023/05/08 02:51:04;;;;;;;19.38;9.55;;;;;;;11.13;100.00;97631.22;5098789;28;20030;-79
2023/05/08 02:53:42;;;;;;;18.73;9.95;;;;;;;11.13;100.00;97642.78;5096915;28;20165;-79
2023/05/08 02:56:10;;;;;;;26.77;9.90;;;;;;;11.03;100.00;97616.69;5097483;28;20083;-79
2023/05/08 02:58:43;;;;;;;18.98;9.85;;;;;;;11.04;100.00;97629.13;5113092;28;20089;-79
2023/05/08 03:01:18;;;;;;;14.82;8.93;;;;;;;11.14;100.00;97631.09;5097074;28;20032;-80
2023/05/08 03:03:49;;;;;;;20.70;9.25;;;;;;;11.04;100.00;97629.97;5097089;28;20095;-79
2023/05/08 03:06:20;;;;;;;21.85;9.40;;;;;;;11.00;100.00;97632.94;5114343;28;20039;-77
2023/05/08 03:08:47;;;;;;;16.08;8.73;;;;;;;11.01;100.00;97634.66;5113555;28;20152;-78
2023/05/08 03:11:21;;;;;;;19.85;9.77;;;;;;;10.89;100.00;97625.56;5096249;28;20485;-78
2023/05/08 03:13:47;;;;;;;20.73;9.77;;;;;;;10.87;100.00;97628.34;5095884;28;20535;-78
2023/05/08 03:16:22;;;;;;;17.90;9.02;;;;;;;10.85;100.00;97634.75;5095649;28;20031;-78
2023/05/08 03:19:14;;;;;;;15.48;9.68;;;;;;;10.91;100.00;97649.56;5095839;28;20495;-79
2023/05/08 03:21:40;;;;;;;17.40;9.70;;;;;;;10.81;100.00;97638.56;5095962;28;20032;-79
2023/05/08 03:24:07;;;;;;;18.80;10.57;;;;;;;10.82;100.00;97645.63;5095635;28;20108;-79
2023/05/08 03:26:33;;;;;;;17.73;9.95;;;;;;;10.76;100.00;97641.53;5095816;28;20042;-79
2023/05/08 03:28:58;;;;;;;27.25;9.05;;;;;;;10.79;100.00;97651.19;5095912;28;20023;-79
2023/05/08 03:31:24;;;;;;;19.30;9.10;;;;;;;10.79;100.00;97644.03;5095772;28;20118;-78
2023/05/08 03:33:53;;;;;;;17.65;9.18;;;;;;;10.84;100.00;97643.72;5112784;28;20028;-78
2023/05/08 03:36:19;;;;;;;15.15;8.55;;;;;;;10.83;100.00;97642.00;5095539;28;20081;-79
2023/05/08 03:38:45;;;;;;;24.05;9.10;;;;;;;10.87;100.00;97640.84;5112858;28;20055;-79
2023/05/08 03:41:11;;;;;;;19.52;10.25;;;;;;;10.94;100.00;97650.22;5095459;28;20096;-79
2023/05/08 03:43:37;;;;;;;27.13;10.23;;;;;;;10.89;100.00;97637.13;5112196;28;20027;-78
2023/05/08 03:46:06;;;;;;;25.58;9.40;;;;;;;11.04;100.00;97643.38;5095314;28;20031;-79
2023/05/08 03:48:33;;;;;;;22.30;9.52;;;;;;;10.97;100.00;97634.00;5112032;28;20045;-79
2023/05/08 03:51:04;;;;;;;15.85;9.02;;;;;;;11.12;100.00;97650.91;5095152;28;20469;-79
2023/05/08 03:53:30;;;;;;;16.98;8.98;;;;;;;11.15;100.00;97640.88;5112246;28;20034;-79
2023/05/08 03:56:00;;;;;;;16.33;8.77;;;;;;;11.25;100.00;97639.34;5112097;28;20080;-79
2023/05/08 03:58:40;;;;;;;20.83;7.78;;;;;;;11.33;100.00;97642.38;5094869;28;20051;-78
2023/05/08 04:01:28;;;;;;;16.63;8.50;;;;;;;11.41;100.00;97633.88;5111972;28;20070;-77
2023/05/08 04:03:58;;;;;;;15.38;7.70;;;;;;;11.46;100.00;97622.84;5109213;28;20024;-78
2023/05/08 04:06:36;;;;;;;15.48;8.13;;;;;;;11.53;100.00;97621.50;5111714;28;20479;-78
2023/05/08 04:09:33;;;;;;;16.27;7.55;;;;;;;11.69;100.00;97616.88;5111268;28;20398;-79
2023/05/08 04:12:24;;;;;;;17.10;7.72;;;;;;;11.77;100.00;97619.94;5143698;27;20027;-79
2023/05/08 04:14:56;;;;;;;14.85;8.05;;;;;;;11.86;100.00;97624.69;5107740;28;20126;-80
2023/05/08 04:17:31;;;;;;;18.80;8.52;;;;;;;12.16;100.00;97622.66;5093860;28;20379;-76
2023/05/08 04:20:00;;;;;;;18.95;8.18;;;;;;;12.50;100.00;97615.84;5094146;28;20032;-78
2023/05/08 04:22:27;;;;;;;13.30;7.97;;;;;;;13.04;100.00;97595.06;5110875;28;20035;-78
2023/05/08 04:24:55;;;;;;;14.15;7.70;;;;;;;13.57;100.00;97580.44;5094056;28;20416;-77
2023/05/08 04:27:21;;;;;;;13.55;8.20;;;;;;;13.47;100.00;97555.25;5093640;28;20024;-77
2023/05/08 04:29:46;;;;;;;21.48;7.80;;;;;;;13.20;100.00;97560.78;5093501;28;20023;-78
2023/05/08 04:32:12;;;;;;;13.77;7.60;;;;;;;13.13;100.00;97564.91;5111065;28;20034;-77
2023/05/08 04:34:38;;;;;;;22.98;7.75;;;;;;;13.24;100.00;97574.84;5093550;28;20030;-78
2023/05/08 04:37:06;;;;;;;26.33;8.20;;;;;;;13.26;100.00;97567.56;5094050;28;20032;-77
2023/05/08 04:39:31;;;;;;;23.58;8.23;;;;;;;13.31;100.00;97571.63;5093236;28;20065;-77
2023/05/08 04:42:01;;;;;;;17.77;8.63;;;;;;;13.22;100.00;97566.06;5093666;28;20035;-77
2023/05/08 04:44:28;;;;;;;20.50;8.80;;;;;;;13.34;100.00;97557.09;5094005;28;20470;-76
2023/05/08 04:46:53;;;;;;;15.70;8.55;;;;;;;13.55;100.00;97564.44;5094123;28;20109;-78
2023/05/08 04:49:19;;;;;;;19.27;8.88;;;;;;;13.68;100.00;97550.97;5094099;28;20016;-78
2023/05/08 04:51:44;;;;;;;19.52;8.70;;;;;;;13.74;100.00;97520.06;5110670;28;20393;-78
2023/05/08 04:54:10;;;;;;;17.40;9.02;;;;;;;13.93;100.00;97539.25;5093566;28;20085;-78
2023/05/08 04:56:35;;;;;;;20.85;9.18;;;;;;;14.09;100.00;97537.06;5093327;28;20023;-78
2023/05/08 04:59:01;;;;;;;18.38;8.35;;;;;;;14.29;100.00;97539.13;5091713;28;20035;-77
2023/05/08 05:01:27;;;;;;;26.17;8.77;;;;;;;14.36;100.00;97528.78;5093900;28;20038;-78
2023/05/08 05:03:52;;;;;;;19.20;7.47;;;;;;;14.51;100.00;97523.06;5093221;28;20102;-78
2023/05/08 05:06:18;;;;;;;15.02;8.15;;;;;;;14.63;100.00;97515.84;5093282;28;20020;-78
2023/05/08 05:08:43;;;;;;;19.00;6.70;;;;;;;14.71;100.00;97501.75;5093255;28;20019;-79
2023/05/08 05:11:09;;;;;;;14.18;7.00;;;;;;;14.90;100.00;97505.59;5092933;28;20102;-77
2023/05/08 05:13:34;;;;;;;12.32;6.93;;;;;;;15.06;100.00;97507.91;5093192;28;20028;-77
2023/05/08 05:16:00;;;;;;;14.05;7.47;;;;;;;15.23;100.00;97503.84;5093224;28;20055;-78
2023/05/08 05:18:25;;;;;;;15.55;7.47;;;;;;;15.44;100.00;97511.00;5093704;28;20550;-77
2023/05/08 05:20:51;;;;;;;17.60;6.85;;;;;;;15.64;100.00;97502.19;5112280;28;20088;-78
2023/05/08 05:23:16;;;;;;;11.57;6.07;;;;;;;15.84;100.00;97494.28;5097479;28;20114;-78
2023/05/08 05:25:42;;;;;;;13.85;6.60;;;;;;;16.36;100.00;97491.56;5097171;28;20137;-78
2023/05/08 05:28:08;;;;;;;19.38;7.45;;;;;;;16.96;100.00;97484.50;5114641;28;20114;-78
2023/05/08 05:30:33;;;;;;;11.75;6.70;;;;;;;17.33;100.00;97474.81;5097416;28;20035;-78
2023/05/08 05:32:59;;;;;;;14.63;6.45;;;;;;;17.86;100.00;97465.41;5114172;28;20161;-78
2023/05/08 05:35:25;;;;;;;13.88;6.70;;;;;;;19.05;100.00;97464.91;5100245;28;20024;-74
2023/05/08 05:37:50;;;;;;;10.73;6.10;;;;;;;20.18;100.00;97455.34;5113971;28;20471;-75
2023/05/08 05:40:16;;;;;;;16.38;6.93;;;;;;;21.16;95.12;97441.41;5113859;28;20036;-76
2023/05/08 05:42:42;;;;;;;18.63;6.63;;;;;;;21.73;86.06;97423.38;5114111;28;20031;-77
2023/05/08 05:45:08;;;;;;;16.95;5.97;;;;;;;22.00;83.67;97421.25;5113658;28;20028;-80
2023/05/08 05:47:34;;;;;;;8.27;4.88;;;;;;;22.70;78.83;97405.22;5095009;28;20033;-77
2023/05/08 05:49:59;;;;;;;18.38;6.22;;;;;;;22.42;78.61;97388.38;5094119;28;20487;-78
2023/05/08 05:52:25;;;;;;;14.75;7.47;;;;;;;21.52;82.90;97393.91;5112484;28;20020;-78
2023/05/08 05:54:51;;;;;;;13.02;7.97;;;;;;;21.49;84.63;97388.81;5111672;28;20114;-78
2023/05/08 05:57:16;;;;;;;23.35;9.57;;;;;;;21.04;85.80;97395.41;5111609;28;20024;-78
2023/05/08 05:59:42;;;;;;;15.85;7.60;;;;;;;21.41;86.08;97403.22;5112461;28;20402;-77
2023/05/08 06:02:09;;;;;;;22.13;10.10;;;;;;;21.74;84.52;97397.88;5096454;28;20490;-77
2023/05/08 06:04:35;;;;;;;16.73;11.13;;;;;;;21.91;85.13;97405.91;5113283;28;20379;-79
2023/05/08 06:07:00;;;;;;;20.42;9.95;;;;;;;22.01;82.75;97395.72;5096923;28;20050;-80
2023/05/08 06:09:26;;;;;;;21.23;9.88;;;;;;;22.14;82.97;97401.50;5095608;28;20134;-79
2023/05/08 06:11:51;;;;;;;16.27;8.27;;;;;;;21.63;83.51;97396.31;5114150;28;20028;-79
2023/05/08 06:14:17;;;;;;;17.75;9.82;;;;;;;21.61;84.09;97392.91;5115694;28;20019;-79
2023/05/08 06:16:43;;;;;;;20.27;9.23;;;;;;;22.09;84.56;97413.91;5113102;28;20031;-77
2023/05/08 06:19:09;;;;;;;22.67;9.48;;;;;;;23.30;79.08;97407.38;5095955;28;20118;-78
2023/05/08 06:21:35;;;;;;;17.52;7.85;;;;;;;24.28;70.95;97410.22;5096020;28;20199;-79
2023/05/08 06:24:01;;;;;;;15.48;9.05;;;;;;;24.85;65.83;97393.31;5112680;28;20027;-79
2023/05/08 06:26:26;;;;;;;14.35;7.57;;;;;;;24.84;63.79;97386.13;5097404;28;20024;-78
2023/05/08 06:28:52;;;;;;;24.75;14.00;;;;;;;24.61;60.59;97371.66;5114119;28;20024;-79
2023/05/08 06:31:17;;;;;;;13.15;6.78;;;;;;;25.29;58.81;97366.72;5094364;28;20430;-74
2023/05/08 06:33:43;;;;;;;22.30;10.40;;;;;;;25.56;56.85;97372.59;5109586;28;20534;-74
2023/05/08 06:36:09;;;;;;;16.95;10.70;;;;;;;25.56;56.10;97353.41;5092801;28;20406;-75
2023/05/08 06:38:34;;;;;;;20.00;9.95;;;;;;;25.17;57.99;97367.41;5109921;28;20530;-74
2023/05/08 06:41:00;;;;;;;11.13;7.03;;;;;;;24.64;57.77;97357.59;5110183;28;20034;-75
2023/05/08 06:43:25;;;;;;;13.25;5.60;;;;;;;24.55;59.13;97355.97;5092989;28;20123;-78
2023/05/08 06:45:51;;;;;;;9.30;5.40;;;;;;;24.50;59.34;97363.88;5092866;28;20024;-75
2023/05/08 06:48:17;;;;;;;9.50;5.78;;;;;;;25.06;58.22;97371.50;5092794;28;20046;-75
2023/05/08 06:50:43;;;;;;;11.15;6.00;;;;;;;24.86;58.95;97355.81;5110098;28;20483;-81
2023/05/08 06:53:08;;;;;;;11.65;6.50;;;;;;;24.48;70.88;97379.63;5111340;28;20035;-76
2023/05/08 06:55:34;;;;;;;12.48;6.32;;;;;;;24.25;70.74;97379.66;5092814;28;20031;-75
2023/05/08 06:57:59;;;;;;;23.40;13.35;;;;;;;24.45;78.45;97402.75;5092697;28;20028;-77
2023/05/08 07:00:25;;;;;;;18.38;10.43;;;;;;;24.90;97.24;97448.31;5109399;28;20038;-76
2023/05/08 07:02:51;;;;;;;14.00;6.80;;;;;;;24.95;77.69;97407.53;5109612;28;20027;-77
2023/05/08 07:05:16;;;;;;;13.95;9.25;;;;;;;26.46;97.01;97471.63;5092502;28;20035;-74
2023/05/08 07:07:42;;;;;;;14.05;5.75;;;;;;;27.48;63.54;97415.19;5109441;28;20363;-76
2023/05/08 07:10:08;;;;;;;13.15;6.50;;;;;;;27.38;58.46;97385.31;5109250;28;20114;-76
2023/05/08 07:12:33;;;;;;;14.43;6.47;;;;;;;27.34;62.06;97390.41;5109226;28;20019;-75
2023/05/08 07:14:59;;;;;;;12.48;6.88;;;;;;;26.75;67.49;97389.13;5092259;28;20168;-75
2023/05/08 07:17:25;;;;;;;17.48;9.57;;;;;;;27.15;59.01;97385.63;5109128;28;20518;-74
2023/05/08 07:19:51;;;;;;;11.63;6.63;;;;;;;27.49;57.28;97392.16;5109305;28;20055;-76
2023/05/08 07:22:17;;;;;;;10.93;6.75;;;;;;;27.63;51.62;97374.66;5109029;28;20031;-76
2023/05/08 07:24:43;;;;;;;10.52;5.72;;;;;;;27.66;51.19;97377.00;5109355;28;20123;-77
2023/05/08 07:27:08;;;;;;;22.45;6.72;;;;;;;28.04;50.24;97369.91;5092223;28;20468;-74
2023/05/08 07:29:37;;;;;;;16.98;7.72;;;;;;;28.27;52.94;97388.84;5091956;28;20028;-76
2023/05/08 07:32:06;;;;;;;16.15;6.25;;;;;;;28.50;50.19;97364.50;5092663;28;20051;-75
2023/05/08 07:34:32;;;;;;;15.35;6.75;;;;;;;28.72;46.99;97365.16;5091995;28;20065;-75
2023/05/08 07:36:58;;;;;;;105.82;58.65;;;;;;;29.57;47.67;97365.78;5110065;28;20066;-77
2023/05/08 07:39:23;;;;;;;22.00;12.45;;;;;;;30.63;44.90;97372.38;5091445;28;20038;-76
2023/05/08 07:41:49;;;;;;;10.73;6.78;;;;;;;31.42;41.04;97363.28;5109887;28;20026;-76
2023/05/08 07:44:14;;;;;;;16.02;6.68;;;;;;;31.22;42.33;97357.16;5090829;28;20031;-77
2023/05/08 07:46:40;;;;;;;17.30;6.25;;;;;;;31.14;42.22;97343.63;5091620;28;20077;-76
2023/05/08 07:49:05;;;;;;;13.82;5.72;;;;;;;31.17;42.42;97348.69;5091730;28;20479;-75
2023/05/08 07:51:32;;;;;;;10.32;5.60;;;;;;;31.02;42.59;97348.22;5091724;28;20086;-75
2023/05/08 07:53:57;;;;;;;10.65;6.25;;;;;;;31.48;41.44;97354.06;5108740;28;20027;-76
2023/05/08 07:56:23;;;;;;;11.38;5.20;;;;;;;32.28;39.86;97357.47;5092244;28;20541;-77
2023/05/08 07:58:48;;;;;;;13.63;5.25;;;;;;;33.08;38.18;97355.09;5091162;28;20032;-75
2023/05/08 08:01:16;;;;;;;6.13;3.97;;;;;;;32.70;38.91;97338.94;5091608;28;20512;-76
2023/05/08 08:03:42;;;;;;;12.57;6.50;;;;;;;33.49;37.92;97341.06;5108550;28;20401;-75
2023/05/08 08:06:08;;;;;;;10.70;5.70;;;;;;;33.13;40.46;97344.16;5109548;28;20038;-78
2023/05/08 08:08:33;;;;;;;13.80;5.53;;;;;;;33.75;41.92;97371.06;5110436;28;20027;-80
2023/05/08 08:10:59;;;;;;;18.15;7.63;;;;;;;34.80;40.37;97363.06;5109103;28;20035;-79
2023/05/08 08:13:25;;;;;;;7.15;4.95;;;;;;;36.30;37.73;97384.16;5109255;28;20114;-79
2023/05/08 08:15:51;;;;;;;7.85;4.43;;;;;;;32.86;39.95;97301.31;5091952;28;20089;-78
2023/05/08 08:18:17;;;;;;;9.00;4.47;;;;;;;34.32;40.83;97357.22;5108835;28;20032;-78
2023/05/08 08:20:43;;;;;;;9.07;4.20;;;;;;;34.46;36.94;97321.59;5112499;28;20035;-79
2023/05/08 08:23:08;;;;;;;11.13;5.40;;;;;;;34.71;40.37;97353.47;5094876;28;20027;-80
2023/05/08 08:25:34;;;;;;;12.60;4.88;;;;;;;33.20;42.73;97317.97;5096581;28;20515;-80
2023/05/08 08:27:59;;;;;;;7.30;4.43;;;;;;;31.72;45.01;97326.56;5113923;28;20035;-79
2023/05/08 08:30:25;;;;;;;8.98;4.63;;;;;;;29.96;47.11;97311.50;5098501;28;20494;-80
2023/05/08 08:32:50;;;;;;;8.02;4.30;;;;;;;29.01;48.39;97309.56;5102736;28;20028;-80
2023/05/08 08:35:16;;;;;;;10.85;4.65;;;;;;;28.23;52.19;97321.50;5102169;28;20107;-80
2023/05/08 08:37:42;;;;;;;7.72;4.55;;;;;;;27.54;55.12;97326.44;5106477;28;20023;-80
2023/05/08 08:40:08;;;;;;;84.15;49.17;;;;;;;28.18;59.46;97349.66;5095486;28;20109;-81
2023/05/08 08:42:33;;;;;;;7.28;4.88;;;;;;;28.30;51.75;97331.44;5092621;28;20076;-80
2023/05/08 08:45:00;;;;;;;7.38;3.95;;;;;;;28.20;53.79;97331.03;5093133;28;20027;-80
2023/05/08 08:47:32;;;;;;;7.55;4.25;;;;;;;29.61;51.06;97349.66;5091197;28;20549;-84
2023/05/08 08:50:00;;;;;;;10.43;5.43;;;;;;;29.20;49.50;97333.44;5091511;28;20027;-80
2023/05/08 08:52:42;;;;;;;11.30;6.70;;;;;;;29.76;49.63;97343.84;5091283;28;20355;-79
2023/05/08 08:55:09;;;;;;;;;;;;;;;29.75;46.92;97325.63;5091379;28;20054;-79
2023/05/08 08:57:38;;;;;;;10.57;4.60;;;;;;;29.62;46.65;97326.53;5091424;28;20314;-80
2023/05/08 09:00:06;;;;;;;10.45;3.67;;;;;;;28.91;43.81;97287.16;5107902;28;20035;-79
2023/05/08 09:02:33;;;;;;;7.82;4.18;;;;;;;28.73;45.40;97304.34;5091223;28;20034;-82
2023/05/08 09:04:59;;;;;;;7.10;5.13;;;;;;;29.09;45.48;97309.34;5091182;28;20558;-81
2023/05/08 09:07:25;;;;;;;10.10;4.10;;;;;;;27.87;45.05;97281.44;5091427;28;20519;-80
2023/05/08 09:09:52;;;;;;;18.90;11.48;;;;;;;27.74;46.81;97291.59;5108187;28;20515;-79
2023/05/08 09:12:17;;;;;;;7.75;5.43;;;;;;;27.87;45.74;97292.44;5090915;28;20114;-80
2023/05/08 09:14:43;;;;;;;5.25;3.47;;;;;;;28.01;45.84;97293.31;5108024;28;20499;-81
2023/05/08 09:17:08;;;;;;;9.70;5.05;;;;;;;27.90;46.53;97291.22;5091804;28;20491;-81
2023/05/08 09:19:34;;;;;;;6.28;3.90;;;;;;;27.96;45.95;97287.63;5091211;28;20040;-81
2023/05/08 09:22:00;;;;;;;9.68;4.18;;;;;;;27.49;45.91;97279.50;5091362;28;20023;-81
2023/05/08 09:24:26;;;;;;;7.07;4.00;;;;;;;27.39;48.61;97299.09;5091318;28;20430;-83
2023/05/08 09:26:52;;;;;;;9.27;4.53;;;;;;;27.25;48.35;97302.84;5107379;28;20486;-81
2023/05/08 09:29:21;;;;;;;8.75;4.63;;;;;;;26.66;48.31;97295.13;5108216;28;20024;-81
2023/05/08 09:31:49;;;;;;;10.13;4.07;;;;;;;26.30;48.64;97287.06;5107688;28;20047;-80
2023/05/08 09:34:26;;;;;;;7.57;4.93;;;;;;;25.98;49.80;97300.47;5091161;28;20032;-81
2023/05/08 09:36:53;;;;;;;5.63;4.53;;;;;;;25.85;50.65;97306.69;5088312;28;20509;-81
2023/05/08 09:39:23;;;;;;;7.32;4.47;;;;;;;24.12;70.72;97343.88;5108078;28;20493;-81
2023/05/08 09:41:59;;;;;;;13.48;4.80;;;;;;;23.26;86.75;97387.78;5090799;28;20554;-81
2023/05/08 09:44:25;;;;;;;10.95;5.47;;;;;;;22.97;96.02;97404.81;5090764;28;20487;-81
2023/05/08 09:46:50;;;;;;;11.93;5.82;;;;;;;22.93;100.00;97425.28;5089355;28;20148;-81
2023/05/08 09:49:17;;;;;;;14.93;5.50;;;;;;;22.91;100.00;97432.78;5092997;28;20103;-81
2023/05/08 09:51:52;;;;;;;11.13;6.18;;;;;;;22.70;100.00;97424.31;5109045;28;20032;-81
2023/05/08 09:54:19;;;;;;;10.63;5.10;;;;;;;23.08;100.00;97434.44;5104341;28;20023;-79
2023/05/08 09:56:44;;;;;;;7.63;4.70;;;;;;;23.29;100.00;97443.94;5093014;28;20479;-81
2023/05/08 09:59:26;;;;;;;11.88;5.20;;;;;;;23.72;100.00;97446.13;5109416;28;20020;-79
2023/05/08 10:01:52;;;;;;;21.00;5.63;;;;;;;23.93;99.94;97446.34;5109593;28;20027;-79
2023/05/08 10:04:30;;;;;;;7.00;5.15;;;;;;;23.78;97.86;97442.66;5092244;28;20148;-80
2023/05/08 10:06:57;;;;;;;11.15;5.10;;;;;;;23.56;95.69;97427.94;5092708;28;20114;-79
2023/05/08 10:09:23;;;;;;;8.20;4.70;;;;;;;23.71;95.64;97447.16;5096673;28;20127;-80
2023/05/08 10:11:54;;;;;;;7.32;4.55;;;;;;;23.85;88.21;97442.78;5096654;28;20030;-81
2023/05/08 10:14:23;;;;;;;16.70;12.60;;;;;;;23.98;86.52;97448.53;5113730;28;20027;-80
2023/05/08 10:16:53;;;;;;;10.88;5.35;;;;;;;23.93;84.98;97451.81;5096333;28;20023;-79
2023/05/08 10:19:20;;;;;;;17.40;7.75;;;;;;;24.09;82.00;97448.94;5112910;28;20020;-78
2023/05/08 10:21:48;;;;;;;10.05;5.88;;;;;;;25.12;76.92;97462.97;5096103;28;20096;-79
2023/05/08 10:24:27;;;;;;;11.27;4.57;;;;;;;26.41;66.19;97458.53;5090591;28;20027;-80
2023/05/08 10:27:02;;;;;;;10.18;4.72;;;;;;;26.99;60.69;97454.59;5113221;28;20024;-79
2023/05/08 10:29:32;;;;;;;6.78;5.10;;;;;;;27.56;57.39;97464.53;5112821;28;20046;-81
2023/05/08 10:31:59;;;;;;;14.63;4.45;;;;;;;27.56;57.53;97475.50;5095612;28;20531;-80
2023/05/08 10:34:26;;;;;;;8.90;4.38;;;;;;;27.96;55.66;97480.16;5113558;28;20556;-80
2023/05/08 10:36:52;;;;;;;11.57;4.10;;;;;;;26.99;57.42;97462.00;5095751;28;20024;-80
2023/05/08 10:39:17;;;;;;;8.05;4.88;;;;;;;26.42;60.63;97433.63;5112871;28;20453;-80
2023/05/08 10:41:43;;;;;;;8.70;4.70;;;;;;;27.06;60.27;97476.63;5096233;28;20028;-80
2023/05/08 10:44:10;;;;;;;11.35;5.18;;;;;;;28.02;56.28;97475.72;5112721;28;20530;-78
2023/05/08 10:46:52;;;;;;;14.65;4.88;;;;;;;28.94;52.96;97485.06;5111260;28;20027;-75
2023/05/08 10:49:35;;;;;;;;;;;;;;;29.20;50.66;97484.16;5110154;28;20498;-74
2023/05/08 10:52:41;;;;;;;9.13;4.70;;;;;;;30.20;46.96;97490.09;5110923;28;19922;-75
2023/05/08 10:55:29;;;;;;;10.48;4.80;;;;;;;30.79;44.66;97488.91;5109109;28;20337;-76
2023/05/08 10:58:31;;;;;;;10.48;6.03;;;;;;;31.20;43.30;97486.47;5093050;28;20169;-76
2023/05/08 11:00:58;;;;;;;15.43;5.65;;;;;;;32.37;40.87;97505.63;5067065;28;20047;-75
2023/05/08 11:03:25;;;;;;;8.38;4.68;;;;;;;33.14;39.68;97487.25;5109425;28;20475;-75
2023/05/08 11:05:52;;;;;;;7.22;3.90;;;;;;;32.97;38.52;97473.22;5092385;28;20023;-75
2023/05/08 11:08:23;;;;;;;8.93;4.72;;;;;;;32.82;38.30;97464.50;5109551;28;20023;-75
2023/05/08 11:10:58;;;;;;;5.90;4.60;;;;;;;32.70;37.86;97458.91;5109581;28;20479;-75
2023/05/08 11:13:33;;;;;;;5.30;4.38;;;;;;;31.34;39.54;97424.44;5109053;28;20081;-75
2023/05/08 11:16:09;;;;;;;5.18;4.28;;;;;;;31.33;39.72;97414.44;5109383;28;20027;-75
2023/05/08 11:18:35;;;;;;;7.32;4.47;;;;;;;31.33;39.27;97414.44;5076182;28;20513;-75
2023/05/08 11:21:05;;;;;;;9.18;4.40;;;;;;;30.16;41.41;97389.47;5092409;28;20035;-75
2023/05/08 11:23:35;;;;;;;10.00;4.40;;;;;;;28.67;44.32;97381.47;5109439;28;20106;-75
2023/05/08 11:26:02;;;;;;;8.70;4.40;;;;;;;27.41;48.12;97398.66;5092115;28;20426;-75
2023/05/08 11:28:31;;;;;;;11.38;4.47;;;;;;;26.69;50.63;97390.78;5109157;28;20016;-75